Time;durP1;ratioP1;P1;durP2;ratioP2;P2;SDS_P1;SDS_P2;PMS_P1;PMS_P2;Temp;Humidity;BMP_temperature;BMP_pressure;BME280_temperature;BME280_humidity;BME280_pressure;Samples;Min_cycle;Max_cycle;Signal;HPM_P1;HPM_P2
2021/09/30 00:01:37;;;;;;;9.53;6.08;;;;;;;18.94;48.30;102797.20;1746602;82;21049;-51
2021/09/30 00:04:04;;;;;;;10.50;6.80;;;;;;;18.92;48.50;102792.42;1736727;82;21036;-47
2021/09/30 00:06:32;;;;;;;13.20;6.45;;;;;;;18.93;48.66;102796.80;1738255;82;21549;-47
2021/09/30 00:08:58;;;;;;;12.15;6.72;;;;;;;18.92;48.72;102789.78;1740044;82;21064;-50
2021/09/30 00:11:29;;;;;;;10.48;6.45;;;;;;;18.90;48.55;102788.95;1738466;82;21538;-47
2021/09/30 00:14:05;;;;;;;9.83;6.55;;;;;;;18.89;48.60;102783.28;1737950;82;21070;-50
2021/09/30 00:33:22;;;;;;;10.70;7.40;;;;;;;18.77;49.07;102778.30;1692943;85;21041;-48
2021/09/30 00:35:43;;;;;;;13.62;7.03;;;;;;;18.75;49.04;102786.70;1688964;85;21034;-50
2021/09/30 00:54:18;;;;;;;9.63;6.55;;;;;;;18.69;49.39;102786.84;1591581;89;21074;-46
2021/09/30 01:20:09;;;;;;;8.65;6.12;;;;;;;18.57;49.69;102780.51;1543332;92;21126;-49
2021/09/30 01:23:03;;;;;;;8.63;6.53;;;;;;;18.55;49.30;102783.63;1525267;93;21634;-51
2021/09/30 01:26:49;;;;;;;8.30;5.85;;;;;;;18.53;49.35;102782.80;1531705;91;21550;-51
2021/09/30 01:47:00;;;;;;;6.90;5.20;;;;;;;18.42;48.85;102790.91;1641966;86;21526;-52
2021/09/30 02:39:46;;;;;;;11.18;5.75;;;;;;;18.27;48.92;102819.37;1680197;85;21030;-51
2021/09/30 02:58:39;;;;;;;7.45;6.05;;;;;;;18.12;50.52;102835.48;1766659;80;21026;-51
2021/09/30 03:01:11;;;;;;;5.87;5.33;;;;;;;18.11;50.48;102833.77;1766828;80;21081;-51
2021/09/30 03:03:41;;;;;;;9.40;5.72;;;;;;;18.11;50.20;102835.97;1673817;83;21078;-47
2021/09/30 03:06:08;;;;;;;6.40;5.45;;;;;;;18.09;50.08;102829.86;1673720;83;21643;-52
2021/09/30 03:08:43;;;;;;;7.15;5.50;;;;;;;18.06;49.85;102828.59;1668304;83;21043;-50
2021/09/30 03:11:09;;;;;;;7.47;5.30;;;;;;;18.03;49.83;102829.11;1677731;83;21555;-50
2021/09/30 03:13:38;;;;;;;8.18;5.83;;;;;;;18.01;49.81;102834.86;1670346;83;21062;-50
2021/09/30 03:18:51;;;;;;;9.08;6.72;;;;;;;17.99;50.19;102837.97;1650035;86;21087;-48
2021/09/30 03:23:35;;;;;;;11.48;7.15;;;;;;;17.78;50.90;102841.41;1643188;86;21566;-48
2021/09/30 03:26:02;;;;;;;7.22;6.53;;;;;;;17.66;51.05;102846.90;1665246;86;21578;-49
2021/09/30 03:28:30;;;;;;;8.40;6.28;;;;;;;17.54;51.36;102839.22;1665356;86;21034;-47
2021/09/30 03:31:00;;;;;;;7.53;6.62;;;;;;;17.49;51.77;102841.09;1665322;86;21077;-50
2021/09/30 03:33:27;;;;;;;9.75;5.97;;;;;;;17.44;52.07;102838.93;1665288;86;21041;-50
2021/09/30 03:36:10;;;;;;;9.83;6.50;;;;;;;17.41;52.58;102840.31;1662160;86;21541;-52
2021/09/30 03:38:39;;;;;;;8.15;6.53;;;;;;;17.37;52.92;102835.97;1665410;86;21602;-51
2021/09/30 03:41:05;;;;;;;9.28;6.72;;;;;;;17.34;53.24;102832.53;1665164;86;21093;-51
2021/09/30 03:43:32;;;;;;;10.80;6.45;;;;;;;17.29;53.32;102835.23;1665372;86;21091;-47
2021/09/30 03:46:00;;;;;;;10.55;6.90;;;;;;;17.24;53.31;102833.14;1665075;86;21050;-51
2021/09/30 03:48:27;;;;;;;9.18;6.67;;;;;;;17.20;53.26;102834.53;1665178;86;21085;-47
2021/09/30 04:01:30;;;;;;;6.97;6.17;;;;;;;16.96;53.81;102841.91;1678910;85;21121;-51
2021/09/30 04:03:57;;;;;;;7.65;6.53;;;;;;;16.90;54.03;102842.44;1669421;85;21129;-50
2021/09/30 04:06:24;;;;;;;10.25;6.55;;;;;;;16.86;54.16;102842.94;1669472;85;21101;-50
2021/09/30 04:08:52;;;;;;;10.23;6.85;;;;;;;16.81;54.45;102843.91;1671276;85;21074;-51
2021/09/30 04:11:19;;;;;;;8.55;7.10;;;;;;;16.79;54.74;102849.63;1669530;84;21522;-48
2021/09/30 04:13:48;;;;;;;8.68;6.30;;;;;;;16.79;55.00;102856.20;1650325;85;21684;-50
2021/09/30 04:16:17;;;;;;;10.58;6.47;;;;;;;16.80;54.97;102860.55;1673520;85;21066;-49
2021/09/30 04:18:44;;;;;;;7.70;6.40;;;;;;;16.81;54.98;102863.19;1669007;85;21077;-50
2021/09/30 04:21:11;;;;;;;9.90;7.15;;;;;;;16.85;55.05;102860.05;1672057;80;21014;-49
2021/09/30 04:23:38;;;;;;;6.90;6.12;;;;;;;16.86;55.20;102860.46;1775644;80;21542;-49
2021/09/30 04:26:06;;;;;;;10.23;6.67;;;;;;;16.86;55.20;102860.46;1768692;80;21006;-51
2021/09/30 04:28:34;;;;;;;6.70;6.03;;;;;;;16.85;55.38;102862.25;1767405;80;20990;-47
2021/09/30 04:31:01;;;;;;;8.28;6.75;;;;;;;16.86;55.86;102863.09;1765866;80;21056;-51
2021/09/30 04:33:29;;;;;;;10.40;6.28;;;;;;;16.91;56.16;102858.65;1762553;80;21003;-50
2021/09/30 04:35:56;;;;;;;9.10;6.28;;;;;;;16.98;56.20;102857.68;1768188;80;21077;-52
2021/09/30 04:38:24;;;;;;;10.45;6.67;;;;;;;17.04;56.16;102853.17;1768235;80;21053;-47
2021/09/30 04:40:50;;;;;;;9.25;6.42;;;;;;;17.09;56.14;102852.67;1776639;80;20970;-47
2021/09/30 04:43:17;;;;;;;7.65;6.15;;;;;;;17.16;56.07;102844.23;1768915;80;21466;-48
2021/09/30 04:45:48;;;;;;;8.40;6.10;;;;;;;17.25;55.93;102855.07;1780569;80;21627;-50
2021/09/30 04:48:18;;;;;;;9.40;5.85;;;;;;;17.32;55.78;102850.98;1775856;80;21057;-49
2021/09/30 04:50:46;;;;;;;10.53;6.47;;;;;;;17.40;55.59;102855.67;1767058;80;20990;-52
2021/09/30 04:53:13;;;;;;;10.65;6.47;;;;;;;17.47;55.49;102848.11;1766448;80;21489;-48
2021/09/30 04:55:40;;;;;;;7.40;5.85;;;;;;;17.54;55.13;102851.07;1765778;80;20970;-48
2021/09/30 04:58:07;;;;;;;9.08;6.17;;;;;;;17.56;54.92;102858.49;1765483;80;21013;-50
2021/09/30 05:00:36;;;;;;;9.23;5.92;;;;;;;17.59;54.89;102855.82;1768114;80;21013;-52
2021/09/30 05:03:07;;;;;;;6.80;5.78;;;;;;;17.61;54.79;102856.66;1775521;80;20983;-50
2021/09/30 05:05:36;;;;;;;12.68;5.85;;;;;;;17.64;54.40;102867.12;1766448;80;21029;-48
2021/09/30 05:08:04;;;;;;;9.33;6.08;;;;;;;17.70;54.21;102867.48;1765587;80;20966;-49
2021/09/30 05:15:37;;;;;;;7.10;5.75;;;;;;;17.84;53.05;102866.78;1658581;86;21490;-50
2021/09/30 05:18:08;;;;;;;9.18;5.00;;;;;;;17.89;52.71;102868.42;1655730;85;21120;-53
2021/09/30 05:20:36;;;;;;;7.97;5.03;;;;;;;17.92;52.32;102866.63;1660067;86;21034;-52
2021/09/30 05:23:04;;;;;;;9.20;4.65;;;;;;;17.95;52.00;102866.59;1647862;86;21026;-50
2021/09/30 05:25:30;;;;;;;6.60;5.05;;;;;;;17.95;51.60;102871.85;1625711;88;21614;-50
2021/09/30 05:27:58;;;;;;;8.65;5.08;;;;;;;17.94;51.41;102865.70;1657718;86;21170;-48
2021/09/30 05:30:24;;;;;;;5.20;4.70;;;;;;;17.95;51.34;102869.22;1658628;86;21016;-47
2021/09/30 05:32:51;;;;;;;9.38;5.30;;;;;;;17.99;50.98;102870.89;1657661;86;21168;-51
2021/09/30 05:35:20;;;;;;;8.53;4.78;;;;;;;17.97;50.68;102870.90;1659925;86;21057;-50
2021/09/30 05:37:52;;;;;;;5.83;4.17;;;;;;;18.00;50.71;102874.81;1660015;86;20982;-48
2021/09/30 05:40:20;;;;;;;8.70;4.35;;;;;;;18.01;50.15;102882.27;1648165;86;21100;-51
2021/09/30 05:42:48;;;;;;;7.25;4.50;;;;;;;18.01;50.19;102877.00;1659901;86;21046;-48
2021/09/30 05:45:16;;;;;;;8.35;5.37;;;;;;;18.03;50.38;102880.48;1622008;88;21066;-48
2021/09/30 05:47:44;;;;;;;7.80;5.47;;;;;;;18.05;49.94;102881.31;1658156;86;21030;-49
2021/09/30 05:50:13;;;;;;;6.33;4.75;;;;;;;18.04;49.61;102887.47;1657260;86;21013;-50
2021/09/30 05:52:45;;;;;;;5.72;4.58;;;;;;;18.03;49.56;102894.97;1656964;86;21099;-49
2021/09/30 05:55:21;;;;;;;7.70;4.72;;;;;;;18.04;49.67;102883.52;1657109;86;21062;-50
2021/09/30 05:57:48;;;;;;;7.83;5.17;;;;;;;18.05;49.23;102891.85;1656842;86;21036;-47
2021/09/30 06:13:34;;;;;;;8.63;5.25;;;;;;;18.24;48.21;102907.70;1774732;80;20985;-49
2021/09/30 06:15:55;;;;;;;8.93;5.58;;;;;;;18.26;48.29;102907.26;1783811;80;20977;-51
2021/09/30 06:18:23;;;;;;;10.48;5.33;;;;;;;18.29;48.34;102908.50;1771646;80;21064;-51
2021/09/30 06:20:53;;;;;;;8.90;5.65;;;;;;;18.34;48.01;102916.73;1774524;80;21078;-47
2021/09/30 06:23:21;;;;;;;7.15;4.92;;;;;;;18.38;47.77;102917.55;1779238;80;21483;-48
2021/09/30 06:25:48;;;;;;;9.08;5.40;;;;;;;18.43;47.73;102913.04;1773910;80;21029;-50
2021/09/30 06:28:15;;;;;;;9.25;4.97;;;;;;;18.45;47.29;102917.42;1780235;80;21453;-50
2021/09/30 06:30:42;;;;;;;11.00;4.97;;;;;;;18.49;47.04;102918.22;1774577;80;21009;-49
2021/09/30 06:33:24;;;;;;;6.30;4.92;;;;;;;18.50;46.76;102925.25;1728705;83;21568;-50
2021/09/30 06:36:02;;;;;;;8.18;5.37;;;;;;;18.53;46.60;102927.80;1666001;86;21558;-50
2021/09/30 06:38:28;;;;;;;8.25;4.95;;;;;;;18.54;46.26;102921.65;1666567;86;21023;-52
2021/09/30 06:40:57;;;;;;;9.10;5.30;;;;;;;18.54;46.14;102924.28;1667476;86;21028;-49
2021/09/30 06:43:23;;;;;;;10.43;5.15;;;;;;;18.54;46.11;102923.84;1667486;86;20970;-51
2021/09/30 06:45:59;;;;;;;8.63;5.58;;;;;;;18.56;46.58;102927.75;1642351;87;21598;-51
2021/09/30 06:48:41;;;;;;;12.37;6.12;;;;;;;18.59;46.05;102934.27;1607079;88;21133;-50
2021/09/30 06:51:10;;;;;;;7.83;5.45;;;;;;;18.61;46.16;102933.78;1558593;90;21529;-51
2021/09/30 06:53:47;;;;;;;6.25;5.35;;;;;;;18.60;46.00;102932.06;1537411;92;21105;-50
2021/09/30 06:56:16;;;;;;;6.65;5.55;;;;;;;18.57;45.98;102934.75;1541133;92;21109;-52
2021/09/30 06:59:06;;;;;;;7.03;5.03;;;;;;;18.54;46.02;102948.89;1563888;90;21115;-50
2021/09/30 07:01:51;;;;;;;6.15;5.37;;;;;;;18.50;45.86;102938.43;1546561;92;21146;-49
2021/09/30 07:04:24;;;;;;;7.80;6.10;;;;;;;18.44;45.72;102943.83;1569122;91;21125;-52
2021/09/30 07:06:55;;;;;;;7.00;5.30;;;;;;;18.42;46.00;102944.27;1538447;92;21607;-49
2021/09/30 07:09:24;;;;;;;8.80;5.95;;;;;;;18.41;46.02;102946.47;1525468;93;21152;-49
2021/09/30 07:11:50;;;;;;;8.33;5.33;;;;;;;18.42;46.25;102945.59;1523393;93;21040;-48
2021/09/30 07:14:17;;;;;;;8.18;5.67;;;;;;;18.44;46.08;102941.19;1518787;93;21093;-49
2021/09/30 07:16:44;;;;;;;7.30;5.53;;;;;;;18.44;45.94;102945.14;1530016;93;21106;-49
2021/09/30 07:19:11;;;;;;;15.93;7.00;;;;;;;18.44;45.53;102949.94;1516966;93;21060;-49
2021/09/30 07:21:37;;;;;;;18.37;7.05;;;;;;;18.44;45.27;102949.94;1537967;92;21036;-50
2021/09/30 07:24:05;;;;;;;18.15;7.53;;;;;;;18.44;45.09;102949.09;1542777;92;21582;-51
2021/09/30 07:26:32;;;;;;;24.85;8.13;;;;;;;18.43;45.22;102944.27;1534283;92;21038;-51
2021/09/30 07:28:58;;;;;;;12.18;6.03;;;;;;;18.43;45.04;102942.04;1595219;88;21574;-50
2021/09/30 07:31:25;;;;;;;9.80;5.78;;;;;;;18.43;44.90;102942.04;1605059;89;21025;-50
2021/09/30 07:33:52;;;;;;;7.67;5.92;;;;;;;18.41;44.63;102944.72;1640220;87;21491;-53
2021/09/30 07:36:20;;;;;;;11.12;6.12;;;;;;;18.40;44.13;102946.91;1649085;84;20993;-49
2021/09/30 07:38:47;;;;;;;7.92;5.42;;;;;;;18.39;44.64;102950.91;1690972;83;21040;-51
2021/09/30 07:41:14;;;;;;;6.75;6.05;;;;;;;18.40;44.90;102939.48;1684411;83;21474;-50
2021/09/30 07:43:42;;;;;;;8.18;6.00;;;;;;;18.42;45.09;102946.44;1708937;81;22265;-50
2021/09/30 07:46:09;;;;;;;10.55;6.28;;;;;;;18.44;45.20;102945.14;1765868;81;20968;-49
2021/09/30 07:48:35;;;;;;;7.80;6.92;;;;;;;18.48;45.31;102945.50;1763082;81;21032;-50
2021/09/30 07:51:02;;;;;;;7.85;6.15;;;;;;;18.48;45.55;102948.14;1772738;81;21049;-51
2021/09/30 07:53:29;;;;;;;8.23;6.03;;;;;;;18.46;45.23;102952.58;1754627;81;21034;-52
2021/09/30 07:55:56;;;;;;;7.97;5.83;;;;;;;18.43;44.88;102949.95;1723343;83;21458;-51
2021/09/30 07:58:24;;;;;;;10.43;6.83;;;;;;;18.41;44.69;102952.63;1771187;81;20994;-50
2021/09/30 08:00:51;;;;;;;6.40;5.72;;;;;;;18.41;44.79;102945.16;1767870;81;20998;-51
2021/09/30 08:03:18;;;;;;;8.75;5.70;;;;;;;18.42;44.87;102945.59;1764252;81;21025;-49
2021/09/30 08:05:45;;;;;;;14.53;6.28;;;;;;;18.44;44.69;102939.88;1774869;81;21023;-51
2021/09/30 08:08:12;;;;;;;8.25;6.12;;;;;;;18.47;44.88;102944.63;1770146;81;21506;-52
2021/09/30 08:10:39;;;;;;;10.40;6.05;;;;;;;18.52;44.58;102941.91;1772125;81;20970;-51
2021/09/30 08:13:06;;;;;;;7.10;5.17;;;;;;;18.56;44.29;102951.48;1764696;81;20951;-49
2021/09/30 08:15:34;;;;;;;12.20;6.58;;;;;;;18.55;43.96;102946.66;1764503;81;21010;-50
2021/09/30 08:18:01;;;;;;;9.05;6.15;;;;;;;18.53;43.63;102954.17;1772059;80;21063;-53
2021/09/30 08:20:28;;;;;;;9.85;6.53;;;;;;;18.46;43.38;102947.30;1769145;80;21006;-51
2021/09/30 08:22:55;;;;;;;11.70;6.28;;;;;;;18.38;43.21;102954.46;1778796;80;21459;-53
2021/09/30 08:25:22;;;;;;;7.10;5.70;;;;;;;18.29;43.64;102955.94;1777350;80;21014;-50
2021/09/30 08:27:49;;;;;;;6.60;5.87;;;;;;;18.23;43.87;102949.47;1775486;80;21509;-49
2021/09/30 08:30:16;;;;;;;12.05;6.28;;;;;;;18.22;44.25;102947.27;1769826;80;21013;-49
2021/09/30 08:32:44;;;;;;;10.72;6.30;;;;;;;18.22;44.01;102949.91;1769205;80;21438;-52
2021/09/30 08:35:12;;;;;;;7.47;5.25;;;;;;;18.23;43.91;102952.10;1764792;80;20994;-49
2021/09/30 08:37:39;;;;;;;7.08;5.80;;;;;;;18.21;44.14;102953.90;1766413;80;21462;-49
2021/09/30 08:40:07;;;;;;;5.70;5.03;;;;;;;18.21;44.29;102951.27;1776344;80;21021;-51
2021/09/30 08:42:34;;;;;;;9.10;4.40;;;;;;;18.23;43.78;102951.66;1768467;80;20970;-50
2021/09/30 08:45:00;;;;;;;7.50;5.10;;;;;;;18.27;43.47;102948.51;1761444;80;21018;-48
2021/09/30 08:47:29;;;;;;;4.37;3.98;;;;;;;18.31;42.89;102951.50;1775272;80;21009;-52
2021/09/30 08:49:57;;;;;;;5.55;5.05;;;;;;;18.35;42.64;102941.32;1750626;80;21011;-49
2021/09/30 08:52:24;;;;;;;8.05;4.90;;;;;;;18.39;42.33;102940.36;1771099;80;21002;-49
2021/09/30 08:54:50;;;;;;;5.45;4.70;;;;;;;18.42;42.78;102953.02;1776127;80;21014;-52
2021/09/30 08:57:17;;;;;;;6.12;4.42;;;;;;;18.48;42.38;102952.09;1771596;80;21006;-51
2021/09/30 09:00:00;;;;;;;6.12;4.05;;;;;;;18.54;41.60;102953.28;1757139;80;21002;-51
2021/09/30 09:02:27;;;;;;;6.78;4.50;;;;;;;18.53;41.21;102952.41;1716410;82;21038;-52
2021/09/30 09:04:57;;;;;;;7.53;4.20;;;;;;;18.55;41.65;102957.64;1719022;82;22204;-49
2021/09/30 09:07:28;;;;;;;6.08;3.72;;;;;;;18.57;41.84;102954.09;1711056;81;21455;-56
2021/09/30 09:09:58;;;;;;;28.43;20.07;;;;;;;18.59;41.13;102954.05;1712889;83;21046;-51
2021/09/30 09:12:31;;;;;;;56.42;37.83;;;;;;;18.60;40.80;102955.80;1713683;83;21022;-54
2021/09/30 09:14:59;;;;;;;45.38;26.50;;;;;;;18.61;40.92;102949.61;1700532;83;21054;-51
2021/09/30 09:17:27;;;;;;;25.12;15.98;;;;;;;18.62;40.74;102958.83;1712797;83;21035;-52
2021/09/30 09:19:58;;;;;;;57.17;34.35;;;;;;;18.62;40.48;102959.27;1705942;83;21120;-51
2021/09/30 09:22:33;;;;;;;70.90;39.80;;;;;;;18.61;40.68;102955.76;1687300;84;21027;-54
2021/09/30 09:25:15;;;;;;;47.30;27.90;;;;;;;18.62;40.15;102963.23;1685871;84;21045;-50
2021/09/30 09:27:55;;;;;;;64.90;35.90;;;;;;;18.58;39.87;102958.91;1686018;84;21074;-49
2021/09/30 09:30:38;;;;;;;25.48;17.15;;;;;;;18.53;39.94;102957.68;1699349;84;21062;-51
2021/09/30 09:33:21;;;;;;;18.05;10.55;;;;;;;18.48;39.82;102956.05;1606778;89;21034;-53
2021/09/30 09:38:49;;;;;;;11.22;6.50;;;;;;;18.46;39.56;102960.48;1568746;90;21070;-52
2021/09/30 09:41:24;;;;;;;11.38;6.53;;;;;;;18.46;39.69;102959.16;1592068;89;21142;-52
2021/09/30 09:43:53;;;;;;;8.68;5.00;;;;;;;18.45;39.96;102958.28;1589459;89;21045;-48
2021/09/30 09:46:23;;;;;;;13.70;8.98;;;;;;;18.45;39.94;102957.41;1601542;89;20990;-51
2021/09/30 09:49:03;;;;;;;41.70;26.97;;;;;;;18.44;40.00;102959.64;1601811;89;21019;-50
2021/09/30 09:51:43;;;;;;;80.55;46.40;;;;;;;18.46;40.09;102967.07;1601565;89;21098;-49
2021/09/30 09:54:10;;;;;;;61.70;39.00;;;;;;;18.49;39.84;102953.81;1573359;90;21113;-51
2021/09/30 09:56:37;;;;;;;37.35;22.82;;;;;;;18.52;39.69;102954.64;1570748;90;21545;-51
2021/09/30 09:59:03;;;;;;;19.07;12.05;;;;;;;18.55;39.69;102957.64;1575990;90;21052;-51
2021/09/30 10:01:44;;;;;;;20.65;15.10;;;;;;;18.53;39.43;102954.17;1586677;90;21092;-49
2021/09/30 10:04:12;;;;;;;29.67;14.23;;;;;;;18.54;39.43;102955.92;1582521;90;21041;-51
2021/09/30 10:06:40;;;;;;;14.40;8.50;;;;;;;18.54;39.38;102946.70;1580542;90;21087;-51
2021/09/30 10:09:11;;;;;;;22.35;14.78;;;;;;;18.55;39.45;102947.09;1548162;92;21076;-49
2021/09/30 10:11:39;;;;;;;29.55;18.73;;;;;;;18.58;39.02;102943.09;1524707;93;21133;-52
2021/09/30 10:14:07;;;;;;;13.78;9.58;;;;;;;18.61;38.84;102943.89;1534330;93;21134;-51
2021/09/30 10:16:37;;;;;;;8.68;6.40;;;;;;;18.64;38.75;102944.28;1526534;93;21049;-50
2021/09/30 10:19:08;;;;;;;6.83;4.90;;;;;;;18.68;38.71;102945.95;1547018;92;21551;-49
2021/09/30 10:21:37;;;;;;;5.22;3.92;;;;;;;18.73;38.75;102945.43;1521052;94;21116;-53
2021/09/30 10:24:15;;;;;;;4.62;4.15;;;;;;;18.76;37.86;102934.80;1539718;92;21095;-51
2021/09/30 10:26:54;;;;;;;5.42;4.10;;;;;;;18.76;37.95;102936.11;1531694;93;22060;-49
2021/09/30 10:29:38;;;;;;;36.38;22.17;;;;;;;18.78;37.90;102934.31;1526215;93;21084;-50
2021/09/30 10:32:07;;;;;;;30.97;19.15;;;;;;;18.80;38.20;102935.14;1575838;91;21092;-50
2021/09/30 10:34:37;;;;;;;130.18;74.07;;;;;;;18.83;37.98;102925.86;1584530;88;21052;-50
2021/09/30 10:37:31;;;;;;;82.20;50.33;;;;;;;18.85;37.62;102922.74;1655860;86;21120;-48
2021/09/30 10:40:20;;;;;;;32.58;18.90;;;;;;;18.86;37.57;102916.55;1652460;86;21065;-49
2021/09/30 10:42:56;;;;;;;16.80;9.75;;;;;;;18.86;37.58;102919.62;1648752;86;21057;-52
2021/09/30 10:45:40;;;;;;;6.17;5.22;;;;;;;18.87;37.77;102919.62;1618064;88;21649;-50
2021/09/30 10:48:08;;;;;;;8.35;5.33;;;;;;;18.87;37.66;102920.94;1644575;86;21041;-50
2021/09/30 10:50:48;;;;;;;8.40;4.95;;;;;;;18.89;37.81;102924.41;1664617;84;21509;-50
2021/09/30 10:53:18;;;;;;;7.25;4.20;;;;;;;18.92;37.80;102916.41;1700780;84;21005;-49
2021/09/30 10:55:44;;;;;;;12.30;4.00;;;;;;;18.94;37.63;102917.24;1700656;84;21533;-49
2021/09/30 10:58:25;;;;;;;7.37;4.67;;;;;;;18.95;37.59;102909.77;1699928;84;20997;-52
2021/09/30 11:00:58;;;;;;;4.87;3.90;;;;;;;18.95;37.69;102915.48;1698753;84;21069;-52
2021/09/30 11:03:26;;;;;;;7.05;4.20;;;;;;;18.98;37.40;102916.27;1709532;82;21017;-49
2021/09/30 11:06:11;;;;;;;4.78;3.58;;;;;;;19.03;37.57;102918.81;1743192;82;21133;-51
2021/09/30 11:08:38;;;;;;;5.17;3.08;;;;;;;19.05;37.62;102923.16;1748641;81;21628;-48
2021/09/30 11:11:09;;;;;;;4.65;3.27;;;;;;;19.09;37.89;102924.83;1754728;81;21080;-48
2021/09/30 11:13:49;;;;;;;7.45;3.10;;;;;;;19.12;37.48;102923.89;1753139;82;21335;-50
2021/09/30 11:16:20;;;;;;;6.62;3.77;;;;;;;19.12;37.34;102916.86;1745217;82;21009;-50
2021/09/30 11:18:58;;;;;;;6.15;3.20;;;;;;;19.10;37.33;102907.23;1697156;83;22575;-50
2021/09/30 11:21:35;;;;;;;7.80;3.85;;;;;;;19.05;37.24;102915.69;1705454;83;21109;-49
2021/09/30 11:24:12;;;;;;;7.50;4.08;;;;;;;19.03;37.80;102911.77;1705125;83;21120;-50
2021/09/30 11:26:54;;;;;;;4.33;3.50;;;;;;;19.08;37.81;102908.56;1702649;83;21084;-49
2021/09/30 11:29:25;;;;;;;5.35;3.72;;;;;;;19.09;37.80;102919.55;1699545;83;21053;-49
2021/09/30 11:32:02;;;;;;;7.60;3.70;;;;;;;19.11;37.74;102909.83;1704849;83;20994;-50
2021/09/30 11:34:34;;;;;;;105.95;56.63;;;;;;;19.13;38.02;102910.66;1705431;83;21538;-48
2021/09/30 11:37:25;;;;;;;47.15;32.17;;;;;;;19.17;37.85;102908.80;1703000;83;21505;-51
2021/09/30 11:39:54;;;;;;;36.95;25.37;;;;;;;19.23;37.49;102904.25;1701398;83;21506;-48
2021/09/30 11:42:25;;;;;;;27.60;19.12;;;;;;;19.26;37.43;102902.88;1705184;83;21530;-49
2021/09/30 11:45:06;;;;;;;27.73;17.02;;;;;;;19.29;37.55;102904.11;1679588;85;21054;-50
2021/09/30 11:47:33;;;;;;;81.72;46.28;;;;;;;19.33;37.47;102893.92;1608497;88;21600;-50
2021/09/30 11:50:01;;;;;;;45.23;29.65;;;;;;;19.39;37.56;102900.84;1609181;88;21569;-50
2021/09/30 11:52:28;;;;;;;68.00;43.52;;;;;;;19.43;37.66;102899.39;1614215;88;21031;-49
2021/09/30 11:54:54;;;;;;;42.20;24.32;;;;;;;19.47;37.19;102893.12;1611376;88;21056;-48
2021/09/30 11:57:26;;;;;;;18.50;12.50;;;;;;;19.48;37.07;102893.56;1608653;88;21081;-48
2021/09/30 12:00:11;;;;;;;52.73;30.30;;;;;;;19.52;36.68;102893.46;1606044;88;21532;-50
2021/09/30 12:03:01;;;;;;;29.35;16.73;;;;;;;19.54;36.81;102889.88;1614181;88;22265;-50
2021/09/30 12:05:31;;;;;;;25.90;14.63;;;;;;;19.58;37.16;102886.73;1604674;88;21036;-49
2021/09/30 12:07:59;;;;;;;13.80;8.35;;;;;;;19.64;36.40;102887.90;1600387;88;21470;-48
2021/09/30 12:10:28;;;;;;;32.23;21.75;;;;;;;19.67;36.37;102878.55;1598787;88;21063;-52
2021/09/30 12:12:55;;;;;;;11.03;9.83;;;;;;;19.67;35.88;102883.84;1594730;88;21131;-51
2021/09/30 12:15:21;;;;;;;49.75;29.25;;;;;;;19.66;35.91;102882.12;1565112;90;21546;-52
2021/09/30 12:17:50;;;;;;;31.42;18.75;;;;;;;19.67;36.02;102875.91;1579287;90;21026;-49
2021/09/30 12:20:18;;;;;;;20.55;13.03;;;;;;;19.69;35.93;102875.42;1586189;89;21094;-48
2021/09/30 12:22:49;;;;;;;10.05;6.12;;;;;;;19.72;36.09;102874.03;1606624;88;21060;-51
2021/09/30 12:25:24;;;;;;;13.20;6.83;;;;;;;19.73;35.69;102875.75;1603867;89;21065;-50
2021/09/30 12:27:55;;;;;;;10.50;7.30;;;;;;;19.72;35.51;102878.00;1553871;92;21173;-49
2021/09/30 12:30:27;;;;;;;;;;;;;;;19.72;36.10;102876.67;1575242;90;22260;-51
2021/09/30 12:33:01;;;;;;;14.60;8.60;;;;;;;19.73;35.58;102874.43;1583107;90;20145;-49
2021/09/30 12:35:30;;;;;;;15.08;6.85;;;;;;;19.71;35.66;102878.44;1572299;90;21062;-52
2021/09/30 12:38:00;;;;;;;10.53;5.55;;;;;;;19.72;35.43;102872.72;1572645;90;21646;-50
2021/09/30 12:40:49;;;;;;;7.42;3.42;;;;;;;19.72;35.33;102870.08;1584773;90;21640;-52
2021/09/30 12:43:18;;;;;;;8.10;3.65;;;;;;;19.75;35.48;102870.85;1585060;90;21072;-49
2021/09/30 12:45:49;;;;;;;4.58;3.40;;;;;;;19.77;35.27;102869.48;1572826;90;21041;-53
2021/09/30 12:48:23;;;;;;;6.62;4.03;;;;;;;19.80;35.22;102874.70;1576597;90;21118;-51
2021/09/30 12:51:00;;;;;;;11.93;5.45;;;;;;;19.83;35.03;102867.55;1636304;85;21074;-52
2021/09/30 12:53:27;;;;;;;9.90;4.12;;;;;;;19.85;35.10;102864.86;1685696;85;20982;-51
2021/09/30 12:56:04;;;;;;;8.83;5.05;;;;;;;19.87;35.26;102870.97;1680759;85;21053;-48
2021/09/30 12:58:34;;;;;;;5.95;3.80;;;;;;;19.86;35.21;102862.64;1684858;85;21073;-49
2021/09/30 13:01:35;;;;;;;7.30;4.45;;;;;;;19.86;35.15;102866.61;1691346;85;21074;-50
2021/09/30 13:04:24;;;;;;;8.65;4.80;;;;;;;19.86;35.17;102859.55;1641198;87;21057;-50
2021/09/30 13:07:01;;;;;;;9.23;5.00;;;;;;;19.93;36.01;102861.55;1632874;87;21029;-51
2021/09/30 13:09:35;;;;;;;5.95;3.30;;;;;;;19.98;35.53;102858.34;1639913;87;21094;-52
2021/09/30 13:12:17;;;;;;;5.62;3.27;;;;;;;20.01;35.13;102852.98;1640238;87;21581;-48
2021/09/30 13:17:30;;;;;;;3.55;2.50;;;;;;;20.07;35.16;102847.53;1594173;90;21659;-51
2021/09/30 13:20:09;;;;;;;4.12;2.95;;;;;;;20.08;34.51;102841.31;1578646;90;21160;-52
2021/09/30 13:22:42;;;;;;;9.50;3.10;;;;;;;20.07;34.19;102839.60;1544724;92;21054;-50
2021/09/30 13:25:17;;;;;;;4.53;2.77;;;;;;;20.06;34.58;102838.73;1539233;92;21075;-48
2021/09/30 13:27:48;;;;;;;3.72;2.85;;;;;;;20.07;34.35;102840.44;1564268;90;21091;-49
2021/09/30 13:30:21;;;;;;;5.05;2.45;;;;;;;20.09;34.41;102835.14;1562662;90;21037;-52
2021/09/30 13:32:50;;;;;;;4.37;2.00;;;;;;;20.09;34.16;102831.17;1575179;90;21039;-50
2021/09/30 13:35:18;;;;;;;5.22;2.50;;;;;;;20.11;34.16;102831.99;1539178;92;21080;-50
2021/09/30 13:37:45;;;;;;;12.63;3.77;;;;;;;20.10;34.53;102835.53;1550080;92;21082;-50
2021/09/30 13:40:13;;;;;;;8.63;4.15;;;;;;;20.13;34.66;102828.85;1550536;92;21535;-50
2021/09/30 13:42:40;;;;;;;6.87;4.78;;;;;;;20.16;34.04;102832.71;1550908;92;21075;-54
2021/09/30 13:45:11;;;;;;;9.28;5.17;;;;;;;20.16;34.52;102827.42;1549374;92;21011;-49
2021/09/30 13:47:38;;;;;;;5.83;3.40;;;;;;;20.18;34.50;102825.16;1553729;91;21090;-49
2021/09/30 13:50:09;;;;;;;8.18;5.45;;;;;;;20.21;34.96;102821.59;1545363;92;21551;-50
2021/09/30 13:52:36;;;;;;;13.08;8.30;;;;;;;20.24;35.14;102821.49;1548106;92;21018;-48
2021/09/30 13:55:04;;;;;;;10.70;7.92;;;;;;;20.24;35.22;102811.79;1573196;90;21132;-51
2021/09/30 13:57:34;;;;;;;67.32;37.80;;;;;;;20.25;34.79;102812.66;1572479;90;22217;-50
2021/09/30 14:00:02;;;;;;;37.65;23.57;;;;;;;20.25;34.51;102808.70;1587189;89;21025;-49
2021/09/30 14:02:31;;;;;;;16.93;11.55;;;;;;;20.22;33.97;102806.13;1628941;87;21105;-50
2021/09/30 14:04:59;;;;;;;10.98;7.05;;;;;;;20.19;33.83;102806.20;1611228;87;21106;-49
2021/09/30 14:07:26;;;;;;;9.95;5.87;;;;;;;20.17;33.73;102804.06;1603265;89;21073;-51
2021/09/30 14:09:53;;;;;;;5.58;3.50;;;;;;;20.17;33.96;102798.77;1606833;89;21025;-49
2021/09/30 14:12:20;;;;;;;5.65;3.90;;;;;;;20.17;34.07;102802.27;1602627;89;21027;-50
2021/09/30 14:14:49;;;;;;;8.65;3.33;;;;;;;20.17;33.74;102797.45;1658913;86;21582;-50
2021/09/30 14:17:15;;;;;;;6.05;3.27;;;;;;;20.15;33.60;102803.23;1702284;83;21050;-50
2021/09/30 14:19:42;;;;;;;4.22;3.08;;;;;;;20.13;33.39;102794.49;1765881;80;21093;-51
2021/09/30 14:22:11;;;;;;;3.90;2.58;;;;;;;20.11;33.67;102803.77;1773242;80;20990;-51
2021/09/30 14:24:39;;;;;;;3.52;2.55;;;;;;;20.09;33.60;102798.98;1768830;80;20977;-51
2021/09/30 14:27:06;;;;;;;6.15;2.75;;;;;;;20.08;33.83;102796.39;1778016;80;20980;-50
2021/09/30 14:29:33;;;;;;;7.83;4.15;;;;;;;20.09;34.07;102790.20;1771760;80;21014;-51
2021/09/30 14:32:01;;;;;;;7.17;3.65;;;;;;;20.09;33.66;102788.88;1774595;80;21117;-50
2021/09/30 14:34:28;;;;;;;4.80;3.05;;;;;;;20.08;33.56;102777.89;1776074;80;21073;-51
2021/09/30 14:36:55;;;;;;;5.12;3.37;;;;;;;20.07;33.40;102788.06;1771491;80;21015;-50
2021/09/30 14:39:22;;;;;;;5.10;3.00;;;;;;;20.06;33.45;102784.55;1780547;80;20980;-52